createdAt,value
2022-12-22T00:02:20.392Z,99820.47
2022-12-22T00:04:46.865Z,99809.44
2022-12-22T00:07:13.237Z,99800.97
2022-12-22T00:09:39.645Z,99816.91
2022-12-22T00:12:06.188Z,99812.66
2022-12-22T00:14:32.537Z,99810.88
2022-12-22T00:16:58.993Z,99808.88
2022-12-22T00:19:25.465Z,99812.00
2022-12-22T00:21:51.820Z,99819.44
2022-12-22T00:24:18.204Z,99829.41
2022-12-22T00:26:44.588Z,99821.63
2022-12-22T00:29:10.927Z,99828.09
2022-12-22T00:31:37.316Z,99829.75
2022-12-22T00:34:03.711Z,99822.06
2022-12-22T00:36:30.065Z,99820.38
2022-12-22T00:38:56.417Z,99825.38
2022-12-22T00:41:22.769Z,99826.84
2022-12-22T00:43:49.135Z,99828.09
2022-12-22T00:46:15.712Z,99814.94
2022-12-22T00:48:42.143Z,99834.44
2022-12-22T00:51:08.523Z,99819.13
2022-12-22T00:53:34.926Z,99812.81
2022-12-22T00:56:01.290Z,99822.97
2022-12-22T00:58:27.630Z,99816.19
2022-12-22T01:00:54.013Z,99815.72
2022-12-22T01:03:20.438Z,99814.34
2022-12-22T01:05:46.966Z,99821.63
2022-12-22T01:08:13.487Z,99819.06
2022-12-22T01:10:39.894Z,99825.44
2022-12-22T01:13:06.306Z,99831.66
2022-12-22T01:15:32.744Z,99826.94
2022-12-22T01:17:59.238Z,99825.13
2022-12-22T01:20:25.591Z,99818.19
2022-12-22T01:22:51.972Z,99811.63
2022-12-22T01:25:18.376Z,99810.28
2022-12-22T01:27:44.718Z,99801.06
2022-12-22T01:30:11.087Z,99805.78
2022-12-22T01:32:37.468Z,99797.00
2022-12-22T01:35:03.822Z,99800.63
2022-12-22T01:37:30.188Z,99797.75
2022-12-22T01:39:56.569Z,99796.13
2022-12-22T01:42:22.945Z,99802.59
2022-12-22T01:44:49.331Z,99806.84
2022-12-22T01:47:15.695Z,99798.22
2022-12-22T01:49:42.070Z,99803.94
2022-12-22T01:52:08.424Z,99801.97
2022-12-22T01:54:34.810Z,99801.88
2022-12-22T01:57:01.280Z,99800.03
2022-12-22T01:59:27.684Z,99801.69
2022-12-22T02:01:54.158Z,99811.41
2022-12-22T02:04:20.659Z,99804.38
2022-12-22T02:06:47.078Z,99805.16
2022-12-22T02:09:13.421Z,99816.97
2022-12-22T02:11:39.798Z,99820.44
2022-12-22T02:14:06.151Z,99816.97
2022-12-22T02:16:32.616Z,99817.28
2022-12-22T02:18:59.021Z,99829.38
2022-12-22T02:21:25.415Z,99831.94
2022-12-22T02:23:51.759Z,99845.75
2022-12-22T02:26:18.159Z,99831.97
2022-12-22T02:28:44.527Z,99834.53
2022-12-22T02:31:11.039Z,99835.84
2022-12-22T02:33:37.404Z,99848.25
2022-12-22T02:36:03.776Z,99840.84
2022-12-22T02:38:30.150Z,99851.31
2022-12-22T02:40:56.490Z,99837.81
2022-12-22T02:43:22.890Z,99818.94
2022-12-22T02:45:49.280Z,99824.53
2022-12-22T02:48:15.656Z,99828.31
2022-12-22T02:50:42.025Z,99824.38
2022-12-22T02:53:08.418Z,99822.56
2022-12-22T02:55:34.805Z,99825.28
2022-12-22T02:58:01.163Z,99835.53
2022-12-22T03:00:27.624Z,99823.81
2022-12-22T03:02:54.280Z,99825.88
2022-12-22T03:05:20.824Z,99823.34
2022-12-22T03:07:47.191Z,99833.78
2022-12-22T03:10:13.568Z,99829.09
2022-12-22T03:12:39.945Z,99841.03
2022-12-22T03:15:06.298Z,99835.59
2022-12-22T03:17:32.672Z,99837.97
2022-12-22T03:19:59.022Z,99845.69
2022-12-22T03:22:25.372Z,99859.03
2022-12-22T03:24:51.765Z,99857.34
2022-12-22T03:27:18.147Z,99869.75
2022-12-22T03:29:44.619Z,99867.31
2022-12-22T03:32:10.965Z,99882.75
2022-12-22T03:34:37.328Z,99886.97
2022-12-22T03:37:03.718Z,99888.38
2022-12-22T03:39:30.106Z,99893.97
2022-12-22T03:41:56.471Z,99885.78
2022-12-22T03:44:22.839Z,99882.13
2022-12-22T03:46:49.241Z,99893.50
2022-12-22T03:49:15.679Z,99891.25
2022-12-22T03:51:42.076Z,99895.41
2022-12-22T03:54:08.463Z,99884.25
2022-12-22T03:56:34.815Z,99886.31
2022-12-22T03:59:01.188Z,99888.03
2022-12-22T04:01:27.668Z,99878.41
2022-12-22T04:03:54.236Z,99891.84
2022-12-22T04:06:20.582Z,99901.81
2022-12-22T04:08:46.942Z,99889.28
2022-12-22T04:11:13.310Z,99891.53
2022-12-22T04:13:39.699Z,99897.44
2022-12-22T04:16:06.210Z,99895.75
2022-12-22T04:18:32.601Z,99930.38
2022-12-22T04:20:59.009Z,99932.97
2022-12-22T04:23:25.378Z,99935.22
2022-12-22T04:25:51.760Z,99950.94
2022-12-22T04:28:18.163Z,99952.44
2022-12-22T04:30:44.582Z,99942.00
2022-12-22T04:33:10.928Z,99944.41
2022-12-22T04:35:37.302Z,99953.81
2022-12-22T04:38:03.716Z,99982.53
2022-12-22T04:40:30.079Z,99987.34
2022-12-22T04:42:56.445Z,99991.16
2022-12-22T04:45:22.834Z,100012.00
2022-12-22T04:47:49.212Z,100011.88
2022-12-22T04:50:15.588Z,100021.88
2022-12-22T04:52:41.984Z,100028.22
2022-12-22T04:55:08.357Z,100044.41
2022-12-22T04:57:40.274Z,100038.19
2022-12-22T05:00:07.330Z,100049.69
2022-12-22T05:02:33.833Z,100043.66
2022-12-22T05:05:00.323Z,100057.56
2022-12-22T05:07:26.675Z,100074.19
2022-12-22T05:09:53.011Z,100070.53
2022-12-22T05:12:19.374Z,100077.66
2022-12-22T05:14:45.752Z,100079.66
2022-12-22T05:17:12.208Z,100082.03
2022-12-22T05:19:38.621Z,100084.47
2022-12-22T05:22:04.973Z,100093.41
2022-12-22T05:24:31.338Z,100098.84
2022-12-22T05:26:57.720Z,100096.97
2022-12-22T05:29:24.082Z,100101.25
2022-12-22T05:31:50.460Z,100111.84
2022-12-22T05:34:16.863Z,100103.34
2022-12-22T05:36:43.222Z,100110.94
2022-12-22T05:39:09.607Z,100108.50
2022-12-22T05:41:36.011Z,100116.66
2022-12-22T05:44:02.375Z,100121.34
2022-12-22T05:46:28.846Z,100128.59
2022-12-22T05:48:55.323Z,100137.97
2022-12-22T05:51:21.684Z,100146.91
2022-12-22T05:53:48.166Z,100145.53
2022-12-22T05:56:14.508Z,100151.13
2022-12-22T05:58:40.877Z,100154.00
2022-12-22T06:01:07.249Z,100150.97
2022-12-22T06:03:33.678Z,100165.75
2022-12-22T06:06:00.208Z,100164.13
2022-12-22T06:08:26.719Z,100161.88
2022-12-22T06:10:53.076Z,100171.53
2022-12-22T06:13:19.441Z,100172.75
2022-12-22T06:15:45.840Z,100176.06
2022-12-22T06:18:12.688Z,100180.91
2022-12-22T06:20:39.053Z,100184.41
2022-12-22T06:23:05.448Z,100189.38
2022-12-22T06:25:31.839Z,100189.94
2022-12-22T06:27:58.205Z,100198.59
2022-12-22T06:30:30.954Z,100196.13
2022-12-22T06:32:59.516Z,100201.94
2022-12-22T06:35:25.916Z,100216.88
2022-12-22T06:37:52.336Z,100215.69
2022-12-22T06:40:18.693Z,100219.66
2022-12-22T06:42:45.075Z,100231.72
2022-12-22T06:45:11.484Z,100227.22
2022-12-22T06:47:37.874Z,100233.53
2022-12-22T06:50:04.257Z,100237.09
2022-12-22T06:52:30.611Z,100244.44
2022-12-22T06:54:57.087Z,100232.66
2022-12-22T06:57:23.456Z,100237.09
2022-12-22T06:59:55.335Z,100242.22
2022-12-22T07:02:23.899Z,100242.00
2022-12-22T07:04:50.443Z,100255.66
2022-12-22T07:07:16.812Z,100252.88
2022-12-22T07:09:43.168Z,100257.56
2022-12-22T07:12:09.527Z,100257.16
2022-12-22T07:14:35.904Z,100254.72
2022-12-22T07:17:02.258Z,100256.88
2022-12-22T07:19:28.621Z,100262.31
2022-12-22T07:21:54.975Z,100260.66
2022-12-22T07:24:21.452Z,100260.06
2022-12-22T07:26:47.827Z,100265.03
2022-12-22T07:29:14.190Z,100265.31
2022-12-22T07:31:40.636Z,100270.91
2022-12-22T07:34:07.026Z,100271.38
2022-12-22T07:36:33.371Z,100278.94
2022-12-22T07:38:59.743Z,100276.22
2022-12-22T07:41:26.103Z,100281.66
2022-12-22T07:43:52.485Z,100285.56
2022-12-22T07:46:18.915Z,100283.94
2022-12-22T07:48:45.299Z,100286.53
2022-12-22T07:51:11.694Z,100282.00
2022-12-22T07:53:38.068Z,100290.50
2022-12-22T07:56:04.437Z,100285.59
2022-12-22T07:58:30.909Z,100285.56
2022-12-22T08:00:57.300Z,100287.06
2022-12-22T08:03:23.716Z,100279.22
2022-12-22T08:05:50.121Z,100286.91
2022-12-22T08:08:16.475Z,100292.94
2022-12-22T08:10:42.833Z,100288.91
2022-12-22T08:13:09.267Z,100295.72
2022-12-22T08:15:35.683Z,100302.31
2022-12-22T08:18:02.042Z,100311.94
2022-12-22T08:20:28.395Z,100301.25
2022-12-22T08:22:54.833Z,100308.06
2022-12-22T08:25:21.216Z,100309.56
2022-12-22T08:27:47.610Z,100314.41
2022-12-22T08:30:14.003Z,100310.50
2022-12-22T08:32:40.371Z,100307.34
2022-12-22T08:35:06.854Z,100320.50
2022-12-22T08:37:33.229Z,100319.28
2022-12-22T08:39:59.596Z,100320.34
2022-12-22T08:42:25.973Z,100311.88
2022-12-22T08:44:52.373Z,100311.88
2022-12-22T08:47:18.800Z,100306.44
2022-12-22T08:49:45.198Z,100310.41
2022-12-22T08:52:17.824Z,100304.66
2022-12-22T08:54:44.918Z,100310.56
2022-12-22T08:57:11.284Z,100308.81
2022-12-22T08:59:37.673Z,100302.84
2022-12-22T09:02:04.170Z,100304.81
2022-12-22T09:04:30.612Z,100313.34
2022-12-22T09:06:56.997Z,100313.06
2022-12-22T09:09:23.350Z,100317.88
2022-12-22T09:11:49.766Z,100308.44
2022-12-22T09:14:16.150Z,100315.28
2022-12-22T09:16:42.591Z,100313.56
2022-12-22T09:19:09.049Z,100307.34
2022-12-22T09:21:35.401Z,100308.41
2022-12-22T09:24:01.798Z,100314.94
2022-12-22T09:26:28.169Z,100319.28
2022-12-22T09:28:54.541Z,100317.16
2022-12-22T09:31:21.045Z,100312.94
2022-12-22T09:33:47.431Z,100318.09
2022-12-22T09:36:13.805Z,100317.47
2022-12-22T09:38:40.112Z,100316.25
2022-12-22T09:41:06.486Z,100331.84
2022-12-22T09:43:32.869Z,100328.19
2022-12-22T09:45:59.322Z,100338.69
2022-12-22T09:48:25.723Z,100341.41
2022-12-22T09:50:52.105Z,100352.03
2022-12-22T09:53:18.489Z,100340.31
2022-12-22T09:55:44.879Z,100346.53
2022-12-22T09:58:12.530Z,100357.13
2022-12-22T10:00:39.007Z,100352.72
2022-12-22T10:03:05.426Z,100355.34
2022-12-22T10:05:31.825Z,100345.47
2022-12-22T10:07:58.300Z,100345.03
2022-12-22T10:10:24.661Z,100333.97
2022-12-22T10:12:51.074Z,100335.22
2022-12-22T10:15:21.812Z,100336.81
2022-12-22T10:17:48.613Z,100334.25
2022-12-22T10:20:15.010Z,100333.03
2022-12-22T10:22:41.388Z,100338.06
2022-12-22T10:25:07.787Z,100343.81
2022-12-22T10:27:36.157Z,100330.03
2022-12-22T10:30:06.768Z,100337.44
2022-12-22T10:32:33.210Z,100337.13
2022-12-22T10:34:59.576Z,100336.03
2022-12-22T10:37:26.075Z,100335.88
2022-12-22T10:39:52.456Z,100328.34
2022-12-22T10:42:18.844Z,100331.06
2022-12-22T10:44:45.222Z,100332.09
2022-12-22T10:47:17.159Z,100334.81
2022-12-22T10:52:09.339Z,100322.78
2022-12-22T10:54:35.755Z,100334.69
2022-12-22T10:57:02.145Z,100326.31
2022-12-22T10:59:28.528Z,100332.88
2022-12-22T11:01:54.985Z,100330.59
2022-12-22T11:04:21.476Z,100326.25
2022-12-22T11:06:47.869Z,100332.13
2022-12-22T11:09:32.551Z,100329.41
2022-12-22T11:11:59.813Z,100319.28
2022-12-22T11:14:26.181Z,100323.25
2022-12-22T11:16:53.010Z,100326.69
2022-12-22T11:19:19.441Z,100321.81
2022-12-22T11:21:45.831Z,100315.34
2022-12-22T11:24:12.222Z,100319.41
2022-12-22T11:26:38.597Z,100319.09
2022-12-22T11:29:04.981Z,100312.72
2022-12-22T11:31:31.431Z,100309.16
2022-12-22T11:33:57.846Z,100311.72
2022-12-22T11:36:24.211Z,100315.03
2022-12-22T11:38:50.552Z,100314.91
2022-12-22T11:41:17.032Z,100311.16
2022-12-22T11:43:43.388Z,100306.72
2022-12-22T11:46:09.856Z,100306.28
2022-12-22T11:48:36.300Z,100301.75
2022-12-22T11:51:08.014Z,100300.25
2022-12-22T11:53:41.057Z,100289.94
2022-12-22T11:56:07.444Z,100294.34
2022-12-22T11:58:33.817Z,100286.75
2022-12-22T12:01:22.367Z,100275.66
2022-12-22T12:03:46.664Z,100285.06
2022-12-22T12:06:13.101Z,100275.84
2022-12-22T12:08:39.462Z,100274.59
2022-12-22T12:11:05.884Z,100271.88
2022-12-22T12:13:37.075Z,100271.13
2022-12-22T12:16:04.233Z,100269.63
2022-12-22T12:18:30.662Z,100258.44
2022-12-22T12:20:57.019Z,100260.22
2022-12-22T12:23:23.399Z,100259.47
2022-12-22T12:25:49.767Z,100249.47
2022-12-22T12:28:16.141Z,100254.00
2022-12-22T12:30:42.533Z,100246.31
2022-12-22T12:33:08.986Z,100239.66
2022-12-22T12:35:35.395Z,100241.94
2022-12-22T12:38:01.788Z,100238.59
2022-12-22T12:40:28.148Z,100230.28
2022-12-22T12:42:54.509Z,100224.84
2022-12-22T12:45:20.898Z,100216.97
2022-12-22T12:47:47.263Z,100221.34
2022-12-22T12:50:13.627Z,100211.53
2022-12-22T12:52:40.059Z,100210.03
2022-12-22T12:55:06.480Z,100210.16
2022-12-22T12:57:32.844Z,100200.22
2022-12-22T12:59:59.230Z,100200.19
2022-12-22T13:02:25.743Z,100194.44
2022-12-22T13:04:52.376Z,100191.44
2022-12-22T13:07:18.754Z,100194.59
2022-12-22T13:09:52.248Z,100184.59
2022-12-22T13:12:24.399Z,100180.69
2022-12-22T13:14:51.134Z,100177.34
2022-12-22T13:17:17.565Z,100175.25
2022-12-22T13:19:44.061Z,100166.59
2022-12-22T13:22:10.516Z,100170.41
2022-12-22T13:24:36.961Z,100171.75
2022-12-22T13:27:03.360Z,100160.09
2022-12-22T13:29:29.765Z,100166.47
2022-12-22T13:31:56.344Z,100158.75
2022-12-22T13:34:22.765Z,100142.88
2022-12-22T13:36:49.123Z,100152.84
2022-12-22T13:39:15.498Z,100149.38
2022-12-22T13:41:41.884Z,100147.09
2022-12-22T13:44:08.312Z,100134.84
2022-12-22T13:46:34.793Z,100132.59
2022-12-22T13:49:01.211Z,100133.19
2022-12-22T13:51:27.601Z,100127.44
2022-12-22T13:54:11.008Z,100124.88
2022-12-22T13:56:37.798Z,100121.41
2022-12-22T13:59:04.185Z,100123.03
2022-12-22T14:01:30.662Z,100129.25
2022-12-22T14:04:00.716Z,100116.88
2022-12-22T14:06:28.156Z,100113.53
2022-12-22T14:08:54.523Z,100113.81
2022-12-22T14:11:20.890Z,100116.09
2022-12-22T14:13:47.262Z,100100.53
2022-12-22T14:16:13.745Z,100103.53
2022-12-22T14:18:40.193Z,100107.31
2022-12-22T14:21:06.554Z,100097.63
2022-12-22T14:23:32.983Z,100096.41
2022-12-22T14:26:00.545Z,100095.22
2022-12-22T14:28:26.936Z,100094.31
2022-12-22T14:30:53.419Z,100086.28
2022-12-22T14:33:19.837Z,100089.63
2022-12-22T14:35:46.220Z,100099.75
2022-12-22T14:38:12.604Z,100088.72
2022-12-22T14:40:38.994Z,100072.09
2022-12-22T14:43:05.494Z,100061.19
2022-12-22T14:45:31.938Z,100051.38
2022-12-22T14:47:58.361Z,100054.66
2022-12-22T14:50:24.807Z,100037.72
2022-12-22T14:52:51.215Z,100030.91
2022-12-22T14:55:17.614Z,100031.06
2022-12-22T14:57:43.999Z,100025.03
2022-12-22T15:00:10.360Z,100016.69
2022-12-22T15:02:39.712Z,100010.19
2022-12-22T15:05:06.852Z,100006.13
2022-12-22T15:08:04.908Z,100006.56
2022-12-22T15:10:19.599Z,100008.84
2022-12-22T15:12:46.126Z,99988.41
2022-12-22T15:15:13.239Z,99986.28
2022-12-22T15:17:39.627Z,99975.38
2022-12-22T15:20:06.013Z,99967.38
2022-12-22T15:22:32.424Z,99958.28
2022-12-22T15:24:58.799Z,99949.63
2022-12-22T15:27:25.209Z,99945.25
2022-12-22T15:29:51.699Z,99941.00
2022-12-22T15:32:18.100Z,99931.81
2022-12-22T15:34:44.501Z,99933.50
2022-12-22T15:37:10.907Z,99925.31
2022-12-22T15:39:37.269Z,99925.59
2022-12-22T15:42:03.683Z,99918.03
2022-12-22T15:44:33.699Z,99913.81
2022-12-22T15:47:04.768Z,99904.72
2022-12-22T15:49:31.168Z,99903.81
2022-12-22T15:51:57.653Z,99892.75
2022-12-22T15:54:24.018Z,99880.03
2022-12-22T15:56:51.003Z,99874.44
2022-12-22T15:59:17.410Z,99874.13
2022-12-22T16:01:43.994Z,99866.59
2022-12-22T16:04:10.529Z,99866.25
2022-12-22T16:06:36.945Z,99855.19
2022-12-22T16:09:03.424Z,99862.63
2022-12-22T16:11:29.796Z,99855.38
2022-12-22T16:13:56.183Z,99855.06
2022-12-22T16:16:22.686Z,99850.84
2022-12-22T16:18:49.080Z,99839.38
2022-12-22T16:21:15.450Z,99853.41
2022-12-22T16:23:41.828Z,99852.16
2022-12-22T16:26:08.188Z,99835.38
2022-12-22T16:28:34.548Z,99838.09
2022-12-22T16:31:01.072Z,99838.38
2022-12-22T16:33:27.592Z,99833.50
2022-12-22T16:35:53.978Z,99832.75
2022-12-22T16:38:20.412Z,99847.44
2022-12-22T16:40:46.899Z,99842.41
2022-12-22T16:45:57.137Z,99851.19
2022-12-22T16:48:23.549Z,99843.66
2022-12-22T16:50:49.932Z,99833.34
2022-12-22T16:53:16.336Z,99840.75
2022-12-22T16:55:42.720Z,99827.59
2022-12-22T16:58:13.526Z,99822.63
2022-12-22T17:00:40.597Z,99802.44
2022-12-22T17:03:07.130Z,99814.09
2022-12-22T17:05:37.483Z,99818.03
2022-12-22T17:08:06.730Z,99804.28
2022-12-22T17:10:33.091Z,99817.16
2022-12-22T17:12:59.448Z,99801.69
2022-12-22T17:15:25.839Z,99804.41
2022-12-22T17:17:52.226Z,99802.44
2022-12-22T17:20:18.617Z,99797.75
2022-12-22T17:22:44.988Z,99796.84
2022-12-22T17:25:11.372Z,99787.91
2022-12-22T17:27:37.725Z,99792.47
2022-12-22T17:30:04.092Z,99792.66
2022-12-22T17:32:30.477Z,99789.75
2022-12-22T17:34:56.841Z,99793.97
2022-12-22T17:37:23.254Z,99805.34
2022-12-22T17:39:49.709Z,99801.69
2022-12-22T17:42:16.184Z,99807.75
2022-12-22T17:44:42.609Z,99804.69
2022-12-22T17:47:09.098Z,99793.06
2022-12-22T17:49:35.493Z,99801.69
2022-12-22T17:52:01.889Z,99802.94
2022-12-22T17:54:28.268Z,99797.75
2022-12-22T17:56:54.652Z,99803.22
2022-12-22T17:59:21.036Z,99801.25
2022-12-22T18:01:47.491Z,99805.34
2022-12-22T18:04:14.000Z,99794.72
2022-12-22T18:06:40.484Z,99793.38
2022-12-22T18:09:06.839Z,99797.00
2022-12-22T18:11:33.209Z,99794.44
2022-12-22T18:13:59.631Z,99794.88
2022-12-22T18:16:26.115Z,99800.91
2022-12-22T18:18:52.528Z,99806.03
2022-12-22T18:21:18.903Z,99802.88
2022-12-22T18:23:49.833Z,99811.66
2022-12-22T18:26:17.205Z,99813.50
2022-12-22T18:28:43.562Z,99814.53
2022-12-22T18:31:09.954Z,99808.00
2022-12-22T18:33:36.397Z,99805.63
2022-12-22T18:36:02.762Z,99797.91
2022-12-22T18:38:29.159Z,99792.91
2022-12-22T18:40:55.553Z,99802.59
2022-12-22T18:43:21.909Z,99806.59
2022-12-22T18:45:48.320Z,99800.06
2022-12-22T18:48:14.703Z,99789.25
2022-12-22T18:50:41.131Z,99800.91
2022-12-22T18:53:07.496Z,99801.16
2022-12-22T18:55:33.887Z,99802.72
2022-12-22T18:58:00.259Z,99813.78
2022-12-22T19:00:26.637Z,99804.50
2022-12-22T19:02:53.113Z,99814.38
2022-12-22T19:05:19.589Z,99824.06
2022-12-22T19:07:46.045Z,99821.63
2022-12-22T19:10:12.400Z,99822.38
2022-12-22T19:12:38.795Z,99832.63
2022-12-22T19:15:05.185Z,99835.25
2022-12-22T19:17:31.587Z,99841.28
2022-12-22T19:19:57.952Z,99841.78
2022-12-22T19:22:24.327Z,99853.09
2022-12-22T19:24:50.818Z,99849.63
2022-12-22T19:27:17.216Z,99862.59
2022-12-22T19:29:43.622Z,99864.75
2022-12-22T19:32:10.105Z,99855.84
2022-12-22T19:34:36.577Z,99861.72
2022-12-22T19:37:03.109Z,99871.59
2022-12-22T19:39:29.477Z,99860.22
2022-12-22T19:41:55.835Z,99853.88
2022-12-22T19:44:22.340Z,99859.59
2022-12-22T19:46:48.734Z,99859.59
2022-12-22T19:49:15.113Z,99868.22
2022-12-22T19:51:41.506Z,99864.28
2022-12-22T19:54:07.883Z,99877.91
2022-12-22T19:56:34.269Z,99881.13
2022-12-22T19:59:00.630Z,99881.56
2022-12-22T20:01:27.165Z,99887.78
2022-12-22T20:03:53.752Z,99893.97
2022-12-22T20:06:20.189Z,99884.28
2022-12-22T20:08:46.592Z,99890.31
2022-12-22T20:11:12.983Z,99902.78
2022-12-22T20:13:39.342Z,99903.38
2022-12-22T20:16:05.736Z,99893.66
2022-12-22T20:18:32.171Z,99905.22
2022-12-22T20:20:58.553Z,99896.28
2022-12-22T20:23:25.051Z,99899.88
2022-12-22T20:25:51.413Z,99895.63
2022-12-22T20:28:17.785Z,99895.53
2022-12-22T20:30:44.183Z,99897.16
2022-12-22T20:33:10.574Z,99909.47
2022-12-22T20:35:36.940Z,99915.19
2022-12-22T20:38:03.334Z,99920.16
2022-12-22T20:40:29.741Z,99923.38
2022-12-22T20:42:56.097Z,99923.09
2022-12-22T20:45:22.462Z,99926.09
2022-12-22T20:47:48.829Z,99939.25
2022-12-22T20:50:15.212Z,99917.28
2022-12-22T20:52:41.572Z,99930.63
2022-12-22T20:55:08.062Z,99935.78
2022-12-22T20:57:34.436Z,99937.44
2022-12-22T21:00:00.836Z,99945.75
2022-12-22T21:02:27.608Z,99950.03
2022-12-22T21:04:54.517Z,99957.31
2022-12-22T21:07:20.880Z,99965.84
2022-12-22T21:09:47.657Z,99968.13
2022-12-22T21:12:14.020Z,99955.97
2022-12-22T21:14:40.413Z,99952.50
2022-12-22T21:17:06.859Z,99966.16
2022-12-22T21:19:33.210Z,99978.75
2022-12-22T21:21:59.558Z,99987.94
2022-12-22T21:24:25.958Z,99995.53
2022-12-22T21:26:52.359Z,99996.56
2022-12-22T21:29:18.743Z,99999.28
2022-12-22T21:31:45.117Z,99993.84
2022-12-22T21:34:11.525Z,99994.31
2022-12-22T21:36:37.902Z,99996.56
2022-12-22T21:39:04.298Z,99992.34
2022-12-22T21:41:30.663Z,99991.59
2022-12-22T21:43:57.027Z,99998.53
2022-12-22T21:46:23.546Z,100006.41
2022-12-22T21:48:50.000Z,100010.47
2022-12-22T21:51:16.374Z,100013.81
2022-12-22T21:53:42.776Z,100010.38
2022-12-22T21:56:09.233Z,100021.25
2022-12-22T21:58:35.599Z,100017.00
2022-12-22T22:01:02.023Z,100020.03
2022-12-22T22:03:28.539Z,100026.06
2022-12-22T22:05:55.076Z,100030.00
2022-12-22T22:08:21.430Z,100039.97
2022-12-22T22:10:47.801Z,100034.72
2022-12-22T22:13:14.153Z,100027.75
2022-12-22T22:15:40.619Z,100034.69
2022-12-22T22:18:07.812Z,100040.16
2022-12-22T22:20:34.364Z,100039.72
2022-12-22T22:23:00.769Z,100029.88
2022-12-22T22:25:27.133Z,100037.16
2022-12-22T22:27:53.487Z,100039.88
2022-12-22T22:30:19.910Z,100053.00
2022-12-22T22:32:46.317Z,100051.97
2022-12-22T22:35:12.707Z,100048.31
2022-12-22T22:37:39.054Z,100052.25
2022-12-22T22:40:05.446Z,100052.53
2022-12-22T22:42:31.821Z,100066.78
2022-12-22T22:44:58.189Z,100068.72
2022-12-22T22:47:24.661Z,100060.41
2022-12-22T22:49:51.059Z,100061.94
2022-12-22T22:52:17.422Z,100072.38
2022-12-22T22:54:43.887Z,100073.13
2022-12-22T22:57:10.261Z,100074.03
2022-12-22T22:59:36.605Z,100080.09
2022-12-22T23:02:03.083Z,100073.13
2022-12-22T23:04:29.580Z,100080.25
2022-12-22T23:06:55.953Z,100084.31
2022-12-22T23:09:22.430Z,100082.06
2022-12-22T23:11:48.784Z,100083.13
2022-12-22T23:14:15.151Z,100086.59
2022-12-22T23:16:41.546Z,100086.75
2022-12-22T23:19:07.907Z,100082.66
2022-12-22T23:21:34.305Z,100091.44
2022-12-22T23:24:00.655Z,100093.56
2022-12-22T23:26:27.035Z,100099.00
2022-12-22T23:28:57.719Z,100083.88
2022-12-22T23:31:27.673Z,100084.19
2022-12-22T23:33:54.053Z,100095.34
2022-12-22T23:36:20.429Z,100089.00
2022-12-22T23:38:46.817Z,100084.63
2022-12-22T23:41:13.225Z,100087.97
2022-12-22T23:43:39.628Z,100087.19
2022-12-22T23:46:06.096Z,100099.75
2022-12-22T23:48:32.501Z,100090.69
2022-12-22T23:50:58.851Z,100098.38
2022-12-22T23:53:25.224Z,100100.81
2022-12-22T23:55:51.568Z,100099.00
2022-12-22T23:58:17.929Z,100095.38
